San Diego, California
Traffic Map
Current Weather Conditions
San Diego, California
Clear
Clear
54°
Feels Like: 54°
Wind Chill: 54° Ceiling: Unl
Heat Index: 54° Visibility: 10mi
Dew Point: 21° Wind: 0mph
Humidity: 28% Direction: ° ()
Pressure: 30.03in Gusts: 0mph
Raw Report DataKSAN 141551Z 00000KT 10SM CLR 12/M06 A3003 RMK AO2 SLP168 T01221061
Traffic Incident Summary
Active as of:
Severity:
Category:
InformationThere was an issue retrieving the traffic information for this location. Please try a different location or try again shortly.
Advertisements